sensor_id;sensor_type;location;lat;lon;timestamp;P1;durP1;ratioP1;P2;durP2;ratioP2
56161;SDS011;42045;52.986;6.014;2022-08-03T06:45:51;15.27;;;5.13;;
56161;SDS011;42045;52.986;6.014;2022-08-03T06:48:17;12.63;;;4.65;;
56161;SDS011;42045;52.986;6.014;2022-08-03T06:50:43;12.13;;;4.45;;
56161;SDS011;42045;52.986;6.014;2022-08-03T06:53:08;15.38;;;4.53;;
56161;SDS011;42045;52.986;6.014;2022-08-03T06:55:34;12.90;;;4.95;;
56161;SDS011;42045;52.986;6.014;2022-08-03T06:58:00;12.85;;;5.43;;
56161;SDS011;42045;52.986;6.014;2022-08-03T07:00:27;11.10;;;4.68;;
56161;SDS011;42045;52.986;6.014;2022-08-03T07:02:57;12.90;;;5.25;;
56161;SDS011;42045;52.986;6.014;2022-08-03T07:05:23;20.48;;;5.50;;
56161;SDS011;42045;52.986;6.014;2022-08-03T07:07:50;15.02;;;6.60;;
56161;SDS011;42045;52.986;6.014;2022-08-03T07:10:19;12.70;;;5.53;;
56161;SDS011;42045;52.986;6.014;2022-08-03T07:12:45;12.32;;;5.57;;
56161;SDS011;42045;52.986;6.014;2022-08-03T07:15:12;15.27;;;5.35;;
56161;SDS011;42045;52.986;6.014;2022-08-03T07:17:38;16.65;;;6.05;;
56161;SDS011;42045;52.986;6.014;2022-08-03T07:20:05;11.20;;;6.18;;
56161;SDS011;42045;52.986;6.014;2022-08-03T07:22:32;15.07;;;6.18;;
56161;SDS011;42045;52.986;6.014;2022-08-03T07:24:58;11.85;;;6.40;;
56161;SDS011;42045;52.986;6.014;2022-08-03T07:27:24;14.98;;;6.63;;
56161;SDS011;42045;52.986;6.014;2022-08-03T07:29:53;12.68;;;6.35;;
56161;SDS011;42045;52.986;6.014;2022-08-03T07:32:20;13.77;;;5.80;;
56161;SDS011;42045;52.986;6.014;2022-08-03T07:34:45;10.15;;;5.45;;
56161;SDS011;42045;52.986;6.014;2022-08-03T07:37:11;15.90;;;7.05;;
56161;SDS011;42045;52.986;6.014;2022-08-03T07:39:37;15.90;;;6.40;;
56161;SDS011;42045;52.986;6.014;2022-08-03T07:42:02;20.08;;;7.72;;
56161;SDS011;42045;52.986;6.014;2022-08-03T07:44:29;19.27;;;7.90;;
56161;SDS011;42045;52.986;6.014;2022-08-03T07:46:55;13.00;;;6.35;;
56161;SDS011;42045;52.986;6.014;2022-08-03T07:49:21;13.55;;;6.03;;
56161;SDS011;42045;52.986;6.014;2022-08-03T07:51:47;13.98;;;6.95;;
56161;SDS011;42045;52.986;6.014;2022-08-03T07:54:33;15.25;;;7.18;;
56161;SDS011;42045;52.986;6.014;2022-08-03T07:56:59;14.25;;;7.18;;
56161;SDS011;42045;52.986;6.014;2022-08-03T07:59:24;15.18;;;8.48;;
56161;SDS011;42045;52.986;6.014;2022-08-03T08:01:50;19.25;;;9.60;;
56161;SDS011;42045;52.986;6.014;2022-08-03T08:04:18;16.85;;;9.25;;
56161;SDS011;42045;52.986;6.014;2022-08-03T08:06:44;20.90;;;9.27;;
56161;SDS011;42045;52.986;6.014;2022-08-03T08:09:10;15.73;;;8.52;;
56161;SDS011;42045;52.986;6.014;2022-08-03T08:11:39;14.35;;;8.60;;
56161;SDS011;42045;52.986;6.014;2022-08-03T08:14:05;21.10;;;9.18;;
56161;SDS011;42045;52.986;6.014;2022-08-03T08:16:33;16.73;;;8.88;;
56161;SDS011;42045;52.986;6.014;2022-08-03T08:18:58;13.27;;;7.78;;
56161;SDS011;42045;52.986;6.014;2022-08-03T08:21:26;16.45;;;8.93;;
56161;SDS011;42045;52.986;6.014;2022-08-03T08:23:52;16.63;;;8.35;;
56161;SDS011;42045;52.986;6.014;2022-08-03T08:26:18;14.98;;;9.55;;
56161;SDS011;42045;52.986;6.014;2022-08-03T08:28:44;16.50;;;9.40;;
56161;SDS011;42045;52.986;6.014;2022-08-03T08:31:10;17.60;;;9.30;;
56161;SDS011;42045;52.986;6.014;2022-08-03T08:33:39;18.90;;;9.23;;
56161;SDS011;42045;52.986;6.014;2022-08-03T08:36:05;17.75;;;9.35;;
56161;SDS011;42045;52.986;6.014;2022-08-03T08:38:33;20.27;;;9.45;;
56161;SDS011;42045;52.986;6.014;2022-08-03T08:40:59;16.38;;;8.50;;
56161;SDS011;42045;52.986;6.014;2022-08-03T08:43:25;14.20;;;7.88;;
56161;SDS011;42045;52.986;6.014;2022-08-03T08:45:53;14.98;;;7.07;;
56161;SDS011;42045;52.986;6.014;2022-08-03T08:48:22;16.42;;;8.32;;
56161;SDS011;42045;52.986;6.014;2022-08-03T08:50:54;16.40;;;7.72;;
56161;SDS011;42045;52.986;6.014;2022-08-03T08:53:22;13.40;;;6.85;;
56161;SDS011;42045;52.986;6.014;2022-08-03T08:55:52;11.65;;;6.45;;
56161;SDS011;42045;52.986;6.014;2022-08-03T08:58:24;14.60;;;7.25;;
56161;SDS011;42045;52.986;6.014;2022-08-03T09:00:54;14.73;;;7.35;;
56161;SDS011;42045;52.986;6.014;2022-08-03T09:03:20;16.10;;;7.18;;
56161;SDS011;42045;52.986;6.014;2022-08-03T09:05:47;11.57;;;6.90;;
56161;SDS011;42045;52.986;6.014;2022-08-03T09:08:13;13.70;;;6.80;;
56161;SDS011;42045;52.986;6.014;2022-08-03T09:10:39;16.67;;;7.25;;
56161;SDS011;42045;52.986;6.014;2022-08-03T09:13:06;19.08;;;7.57;;
56161;SDS011;42045;52.986;6.014;2022-08-03T09:15:33;13.85;;;7.30;;
56161;SDS011;42045;52.986;6.014;2022-08-03T09:18:01;14.77;;;6.95;;
56161;SDS011;42045;52.986;6.014;2022-08-03T09:20:28;21.17;;;8.43;;
56161;SDS011;42045;52.986;6.014;2022-08-03T09:25:33;19.05;;;11.80;;
56161;SDS011;42045;52.986;6.014;2022-08-03T09:28:04;19.42;;;10.98;;
56161;SDS011;42045;52.986;6.014;2022-08-03T09:30:38;18.02;;;9.63;;
56161;SDS011;42045;52.986;6.014;2022-08-03T09:33:06;19.70;;;10.50;;
56161;SDS011;42045;52.986;6.014;2022-08-03T09:35:44;18.70;;;11.60;;
56161;SDS011;42045;52.986;6.014;2022-08-03T09:40:38;18.15;;;10.40;;
56161;SDS011;42045;52.986;6.014;2022-08-03T09:43:05;21.30;;;11.73;;
56161;SDS011;42045;52.986;6.014;2022-08-03T09:45:37;20.67;;;12.02;;
56161;SDS011;42045;52.986;6.014;2022-08-03T09:48:37;18.25;;;12.07;;
56161;SDS011;42045;52.986;6.014;2022-08-03T09:50:59;20.50;;;11.80;;
56161;SDS011;42045;52.986;6.014;2022-08-03T09:53:27;18.40;;;9.57;;
56161;SDS011;42045;52.986;6.014;2022-08-03T09:57:18;20.55;;;12.02;;
56161;SDS011;42045;52.986;6.014;2022-08-03T09:59:51;20.70;;;11.20;;
56161;SDS011;42045;52.986;6.014;2022-08-03T10:02:21;22.17;;;10.77;;
56161;SDS011;42045;52.986;6.014;2022-08-03T10:04:49;19.43;;;11.67;;
56161;SDS011;42045;52.986;6.014;2022-08-03T10:07:17;19.65;;;10.38;;
56161;SDS011;42045;52.986;6.014;2022-08-03T10:10:00;22.80;;;10.65;;
56161;SDS011;42045;52.986;6.014;2022-08-03T10:12:27;16.83;;;11.30;;
56161;SDS011;42045;52.986;6.014;2022-08-03T10:14:54;22.92;;;11.02;;
56161;SDS011;42045;52.986;6.014;2022-08-03T10:17:20;23.05;;;10.32;;
56161;SDS011;42045;52.986;6.014;2022-08-03T10:19:47;20.90;;;10.70;;
56161;SDS011;42045;52.986;6.014;2022-08-03T10:24:45;17.02;;;10.45;;
56161;SDS011;42045;52.986;6.014;2022-08-03T10:27:21;20.27;;;12.02;;
56161;SDS011;42045;52.986;6.014;2022-08-03T10:29:52;21.13;;;10.68;;
56161;SDS011;42045;52.986;6.014;2022-08-03T10:35:17;18.05;;;12.05;;
56161;SDS011;42045;52.986;6.014;2022-08-03T10:37:49;22.30;;;12.95;;
56161;SDS011;42045;52.986;6.014;2022-08-03T10:40:23;23.17;;;11.25;;
56161;SDS011;42045;52.986;6.014;2022-08-03T10:45:40;24.25;;;11.40;;
56161;SDS011;42045;52.986;6.014;2022-08-03T10:48:08;27.83;;;12.82;;
56161;SDS011;42045;52.986;6.014;2022-08-03T10:50:35;24.60;;;12.65;;
56161;SDS011;42045;52.986;6.014;2022-08-03T10:53:04;25.55;;;11.80;;
56161;SDS011;42045;52.986;6.014;2022-08-03T11:01:05;21.27;;;12.00;;
56161;SDS011;42045;52.986;6.014;2022-08-03T11:03:32;20.25;;;11.20;;
56161;SDS011;42045;52.986;6.014;2022-08-03T11:06:17;23.35;;;11.50;;
56161;SDS011;42045;52.986;6.014;2022-08-03T11:08:44;23.17;;;9.70;;
56161;SDS011;42045;52.986;6.014;2022-08-03T11:13:56;18.42;;;7.82;;
56161;SDS011;42045;52.986;6.014;2022-08-03T11:16:30;22.17;;;8.40;;
56161;SDS011;42045;52.986;6.014;2022-08-03T11:19:01;22.67;;;9.18;;
56161;SDS011;42045;52.986;6.014;2022-08-03T11:21:51;21.13;;;9.45;;
56161;SDS011;42045;52.986;6.014;2022-08-03T11:27:25;19.00;;;10.48;;
56161;SDS011;42045;52.986;6.014;2022-08-03T11:30:08;20.40;;;9.18;;
56161;SDS011;42045;52.986;6.014;2022-08-03T11:38:21;20.08;;;10.13;;
56161;SDS011;42045;52.986;6.014;2022-08-03T11:40:32;22.35;;;8.20;;
56161;SDS011;42045;52.986;6.014;2022-08-03T11:43:05;21.33;;;10.13;;
56161;SDS011;42045;52.986;6.014;2022-08-03T11:45:32;19.88;;;11.18;;
56161;SDS011;42045;52.986;6.014;2022-08-03T11:47:59;21.88;;;9.70;;
56161;SDS011;42045;52.986;6.014;2022-08-03T11:50:37;26.05;;;9.05;;
56161;SDS011;42045;52.986;6.014;2022-08-03T11:53:04;21.05;;;9.45;;
56161;SDS011;42045;52.986;6.014;2022-08-03T11:55:30;18.83;;;7.15;;
56161;SDS011;42045;52.986;6.014;2022-08-03T11:57:59;21.13;;;9.25;;
56161;SDS011;42045;52.986;6.014;2022-08-03T12:00:26;16.85;;;8.52;;
56161;SDS011;42045;52.986;6.014;2022-08-03T12:03:14;27.08;;;9.82;;
56161;SDS011;42045;52.986;6.014;2022-08-03T12:05:44;17.88;;;8.70;;
56161;SDS011;42045;52.986;6.014;2022-08-03T12:08:15;25.75;;;8.38;;
56161;SDS011;42045;52.986;6.014;2022-08-03T12:10:46;20.50;;;7.70;;
56161;SDS011;42045;52.986;6.014;2022-08-03T12:13:14;19.55;;;8.10;;
56161;SDS011;42045;52.986;6.014;2022-08-03T12:15:40;21.35;;;7.90;;
56161;SDS011;42045;52.986;6.014;2022-08-03T12:18:14;19.92;;;7.13;;
56161;SDS011;42045;52.986;6.014;2022-08-03T12:20:40;23.10;;;9.25;;
56161;SDS011;42045;52.986;6.014;2022-08-03T12:23:07;21.83;;;8.43;;
56161;SDS011;42045;52.986;6.014;2022-08-03T12:25:34;21.02;;;8.05;;
56161;SDS011;42045;52.986;6.014;2022-08-03T12:30:37;20.42;;;7.85;;
56161;SDS011;42045;52.986;6.014;2022-08-03T12:36:10;22.70;;;9.98;;
56161;SDS011;42045;52.986;6.014;2022-08-03T12:38:36;19.75;;;9.55;;
56161;SDS011;42045;52.986;6.014;2022-08-03T12:41:04;20.73;;;9.30;;
56161;SDS011;42045;52.986;6.014;2022-08-03T12:43:31;18.67;;;8.68;;
56161;SDS011;42045;52.986;6.014;2022-08-03T12:46:07;18.70;;;9.48;;
56161;SDS011;42045;52.986;6.014;2022-08-03T12:48:34;15.95;;;9.98;;
56161;SDS011;42045;52.986;6.014;2022-08-03T12:51:06;17.10;;;9.85;;
56161;SDS011;42045;52.986;6.014;2022-08-03T12:53:33;17.45;;;8.55;;
56161;SDS011;42045;52.986;6.014;2022-08-03T12:56:00;23.55;;;9.77;;
56161;SDS011;42045;52.986;6.014;2022-08-03T12:58:30;17.98;;;9.60;;
56161;SDS011;42045;52.986;6.014;2022-08-03T13:00:58;19.75;;;10.27;;
56161;SDS011;42045;52.986;6.014;2022-08-03T13:03:24;19.25;;;10.18;;
56161;SDS011;42045;52.986;6.014;2022-08-03T13:05:52;15.75;;;9.43;;
56161;SDS011;42045;52.986;6.014;2022-08-03T13:08:24;18.58;;;9.23;;
56161;SDS011;42045;52.986;6.014;2022-08-03T13:10:52;16.48;;;9.73;;
56161;SDS011;42045;52.986;6.014;2022-08-03T13:13:36;17.90;;;9.50;;
56161;SDS011;42045;52.986;6.014;2022-08-03T13:16:02;19.80;;;10.88;;
56161;SDS011;42045;52.986;6.014;2022-08-03T13:18:28;21.92;;;10.13;;
56161;SDS011;42045;52.986;6.014;2022-08-03T13:20:54;19.88;;;9.20;;
56161;SDS011;42045;52.986;6.014;2022-08-03T13:23:19;19.52;;;10.10;;
56161;SDS011;42045;52.986;6.014;2022-08-03T13:25:45;20.63;;;9.43;;
56161;SDS011;42045;52.986;6.014;2022-08-03T13:28:11;22.02;;;10.50;;
56161;SDS011;42045;52.986;6.014;2022-08-03T13:30:38;21.60;;;9.68;;
56161;SDS011;42045;52.986;6.014;2022-08-03T13:33:04;18.25;;;8.45;;
56161;SDS011;42045;52.986;6.014;2022-08-03T13:35:30;18.73;;;9.55;;
56161;SDS011;42045;52.986;6.014;2022-08-03T13:37:56;17.45;;;8.73;;
56161;SDS011;42045;52.986;6.014;2022-08-03T13:40:21;13.65;;;7.68;;
56161;SDS011;42045;52.986;6.014;2022-08-03T13:42:47;18.40;;;9.23;;
56161;SDS011;42045;52.986;6.014;2022-08-03T13:45:13;16.42;;;8.35;;
56161;SDS011;42045;52.986;6.014;2022-08-03T13:47:44;22.20;;;10.27;;
56161;SDS011;42045;52.986;6.014;2022-08-03T13:50:13;17.10;;;9.32;;
56161;SDS011;42045;52.986;6.014;2022-08-03T13:52:39;17.38;;;9.20;;
56161;SDS011;42045;52.986;6.014;2022-08-03T13:55:05;16.80;;;8.95;;
56161;SDS011;42045;52.986;6.014;2022-08-03T13:57:32;17.52;;;8.38;;
56161;SDS011;42045;52.986;6.014;2022-08-03T13:59:59;18.23;;;8.98;;
56161;SDS011;42045;52.986;6.014;2022-08-03T14:02:25;18.75;;;8.60;;
56161;SDS011;42045;52.986;6.014;2022-08-03T14:04:51;17.00;;;8.25;;
56161;SDS011;42045;52.986;6.014;2022-08-03T14:07:18;11.27;;;8.10;;
56161;SDS011;42045;52.986;6.014;2022-08-03T14:09:44;17.83;;;7.85;;
56161;SDS011;42045;52.986;6.014;2022-08-03T14:12:10;16.10;;;8.32;;
56161;SDS011;42045;52.986;6.014;2022-08-03T14:14:35;15.48;;;7.32;;
56161;SDS011;42045;52.986;6.014;2022-08-03T14:17:01;19.92;;;7.65;;
56161;SDS011;42045;52.986;6.014;2022-08-03T14:19:27;16.98;;;8.57;;
56161;SDS011;42045;52.986;6.014;2022-08-03T14:21:52;15.98;;;8.55;;
56161;SDS011;42045;52.986;6.014;2022-08-03T14:24:18;15.38;;;8.13;;
56161;SDS011;42045;52.986;6.014;2022-08-03T14:26:44;18.75;;;8.40;;
56161;SDS011;42045;52.986;6.014;2022-08-03T14:29:09;17.65;;;6.93;;
56161;SDS011;42045;52.986;6.014;2022-08-03T14:31:35;15.02;;;6.80;;
56161;SDS011;42045;52.986;6.014;2022-08-03T14:34:01;16.75;;;7.55;;
56161;SDS011;42045;52.986;6.014;2022-08-03T14:36:27;16.17;;;6.47;;
56161;SDS011;42045;52.986;6.014;2022-08-03T14:38:53;18.13;;;7.72;;
56161;SDS011;42045;52.986;6.014;2022-08-03T14:41:18;14.70;;;6.70;;
56161;SDS011;42045;52.986;6.014;2022-08-03T14:43:44;16.77;;;7.32;;
56161;SDS011;42045;52.986;6.014;2022-08-03T14:46:10;15.70;;;7.80;;
56161;SDS011;42045;52.986;6.014;2022-08-03T14:48:45;14.60;;;6.15;;
56161;SDS011;42045;52.986;6.014;2022-08-03T14:51:11;18.48;;;7.60;;
56161;SDS011;42045;52.986;6.014;2022-08-03T14:53:39;14.23;;;6.82;;
56161;SDS011;42045;52.986;6.014;2022-08-03T14:56:05;15.02;;;6.78;;
56161;SDS011;42045;52.986;6.014;2022-08-03T14:58:31;13.70;;;6.13;;
56161;SDS011;42045;52.986;6.014;2022-08-03T15:00:57;13.15;;;5.82;;
56161;SDS011;42045;52.986;6.014;2022-08-03T15:03:23;18.45;;;6.93;;
56161;SDS011;42045;52.986;6.014;2022-08-03T15:05:53;14.27;;;6.20;;
56161;SDS011;42045;52.986;6.014;2022-08-03T15:08:20;10.00;;;5.75;;
56161;SDS011;42045;52.986;6.014;2022-08-03T15:10:47;16.02;;;5.78;;
56161;SDS011;42045;52.986;6.014;2022-08-03T15:13:14;13.32;;;4.93;;
56161;SDS011;42045;52.986;6.014;2022-08-03T15:15:46;12.02;;;5.63;;
56161;SDS011;42045;52.986;6.014;2022-08-03T15:18:12;11.13;;;4.80;;
56161;SDS011;42045;52.986;6.014;2022-08-03T15:20:40;11.75;;;5.50;;
56161;SDS011;42045;52.986;6.014;2022-08-03T15:23:10;12.90;;;5.28;;
56161;SDS011;42045;52.986;6.014;2022-08-03T15:25:37;14.38;;;5.85;;
56161;SDS011;42045;52.986;6.014;2022-08-03T15:28:04;17.55;;;5.57;;
56161;SDS011;42045;52.986;6.014;2022-08-03T15:30:31;16.92;;;5.57;;
56161;SDS011;42045;52.986;6.014;2022-08-03T15:33:00;18.40;;;5.60;;
56161;SDS011;42045;52.986;6.014;2022-08-03T15:35:27;14.80;;;5.90;;
56161;SDS011;42045;52.986;6.014;2022-08-03T15:37:53;14.20;;;5.53;;
56161;SDS011;42045;52.986;6.014;2022-08-03T15:40:20;12.70;;;6.20;;
56161;SDS011;42045;52.986;6.014;2022-08-03T15:42:46;14.73;;;5.28;;
56161;SDS011;42045;52.986;6.014;2022-08-03T15:45:12;13.68;;;4.72;;
56161;SDS011;42045;52.986;6.014;2022-08-03T15:47:38;13.18;;;4.53;;
56161;SDS011;42045;52.986;6.014;2022-08-03T15:50:05;11.02;;;4.47;;
56161;SDS011;42045;52.986;6.014;2022-08-03T15:52:31;11.32;;;4.45;;
56161;SDS011;42045;52.986;6.014;2022-08-03T15:55:10;12.35;;;4.55;;
56161;SDS011;42045;52.986;6.014;2022-08-03T15:57:40;17.75;;;4.05;;
56161;SDS011;42045;52.986;6.014;2022-08-03T16:00:06;19.40;;;4.28;;
56161;SDS011;42045;52.986;6.014;2022-08-03T16:02:34;12.60;;;4.38;;
56161;SDS011;42045;52.986;6.014;2022-08-03T16:05:00;20.75;;;5.75;;
56161;SDS011;42045;52.986;6.014;2022-08-03T16:07:26;15.55;;;4.25;;
56161;SDS011;42045;52.986;6.014;2022-08-03T16:10:08;10.50;;;4.90;;
56161;SDS011;42045;52.986;6.014;2022-08-03T16:12:35;12.77;;;3.97;;
56161;SDS011;42045;52.986;6.014;2022-08-03T16:15:02;8.77;;;3.72;;
56161;SDS011;42045;52.986;6.014;2022-08-03T16:17:31;10.68;;;3.63;;
56161;SDS011;42045;52.986;6.014;2022-08-03T16:19:57;13.18;;;4.40;;
56161;SDS011;42045;52.986;6.014;2022-08-03T16:22:23;13.63;;;3.83;;
56161;SDS011;42045;52.986;6.014;2022-08-03T16:24:51;11.27;;;4.22;;
56161;SDS011;42045;52.986;6.014;2022-08-03T16:27:21;13.02;;;4.45;;
56161;SDS011;42045;52.986;6.014;2022-08-03T16:29:48;14.07;;;4.60;;
56161;SDS011;42045;52.986;6.014;2022-08-03T16:32:14;10.73;;;4.15;;
56161;SDS011;42045;52.986;6.014;2022-08-03T16:34:41;13.90;;;4.28;;
56161;SDS011;42045;52.986;6.014;2022-08-03T16:37:08;12.48;;;4.03;;
56161;SDS011;42045;52.986;6.014;2022-08-03T16:39:34;12.98;;;4.15;;
56161;SDS011;42045;52.986;6.014;2022-08-03T16:42:01;10.57;;;3.40;;
56161;SDS011;42045;52.986;6.014;2022-08-03T16:44:28;14.55;;;4.05;;
56161;SDS011;42045;52.986;6.014;2022-08-03T16:46:56;12.32;;;3.42;;
56161;SDS011;42045;52.986;6.014;2022-08-03T16:49:26;10.73;;;3.70;;
56161;SDS011;42045;52.986;6.014;2022-08-03T16:51:52;8.57;;;3.17;;
56161;SDS011;42045;52.986;6.014;2022-08-03T16:54:18;10.80;;;3.83;;
56161;SDS011;42045;52.986;6.014;2022-08-03T16:56:49;11.15;;;3.17;;
56161;SDS011;42045;52.986;6.014;2022-08-03T16:59:16;12.07;;;3.72;;
56161;SDS011;42045;52.986;6.014;2022-08-03T17:01:43;13.35;;;3.40;;
56161;SDS011;42045;52.986;6.014;2022-08-03T17:04:11;15.48;;;3.70;;
56161;SDS011;42045;52.986;6.014;2022-08-03T17:06:38;9.68;;;3.30;;
56161;SDS011;42045;52.986;6.014;2022-08-03T17:09:15;14.27;;;3.75;;
56161;SDS011;42045;52.986;6.014;2022-08-03T17:11:44;12.00;;;3.35;;
56161;SDS011;42045;52.986;6.014;2022-08-03T17:14:12;11.20;;;3.85;;
56161;SDS011;42045;52.986;6.014;2022-08-03T17:16:39;11.98;;;4.75;;
56161;SDS011;42045;52.986;6.014;2022-08-03T17:19:09;15.93;;;4.47;;
56161;SDS011;42045;52.986;6.014;2022-08-03T17:21:37;17.73;;;4.70;;
56161;SDS011;42045;52.986;6.014;2022-08-03T17:24:24;14.80;;;4.63;;
56161;SDS011;42045;52.986;6.014;2022-08-03T17:27:03;14.98;;;4.22;;
56161;SDS011;42045;52.986;6.014;2022-08-03T17:29:37;13.18;;;4.45;;
56161;SDS011;42045;52.986;6.014;2022-08-03T17:32:05;15.98;;;4.93;;
56161;SDS011;42045;52.986;6.014;2022-08-03T17:34:31;17.55;;;5.13;;
56161;SDS011;42045;52.986;6.014;2022-08-03T17:36:58;14.35;;;4.32;;
56161;SDS011;42045;52.986;6.014;2022-08-03T17:39:28;14.27;;;4.63;;
56161;SDS011;42045;52.986;6.014;2022-08-03T17:41:54;17.90;;;5.20;;
56161;SDS011;42045;52.986;6.014;2022-08-03T17:44:24;15.70;;;4.05;;
56161;SDS011;42045;52.986;6.014;2022-08-03T17:46:52;14.35;;;4.78;;
56161;SDS011;42045;52.986;6.014;2022-08-03T17:49:18;12.35;;;3.90;;
56161;SDS011;42045;52.986;6.014;2022-08-03T17:51:44;13.35;;;4.03;;
56161;SDS011;42045;52.986;6.014;2022-08-03T18:05:02;14.25;;;4.35;;
56161;SDS011;42045;52.986;6.014;2022-08-03T18:07:40;10.98;;;4.00;;
56161;SDS011;42045;52.986;6.014;2022-08-03T18:10:13;16.58;;;3.97;;
56161;SDS011;42045;52.986;6.014;2022-08-03T18:12:55;12.65;;;3.75;;
56161;SDS011;42045;52.986;6.014;2022-08-03T18:15:30;20.05;;;4.45;;
56161;SDS011;42045;52.986;6.014;2022-08-03T18:18:04;12.07;;;3.92;;
56161;SDS011;42045;52.986;6.014;2022-08-03T18:20:33;16.08;;;4.43;;
56161;SDS011;42045;52.986;6.014;2022-08-03T18:23:01;13.30;;;4.45;;
56161;SDS011;42045;52.986;6.014;2022-08-03T18:25:28;10.82;;;3.95;;
56161;SDS011;42045;52.986;6.014;2022-08-03T18:27:54;13.82;;;4.43;;
56161;SDS011;42045;52.986;6.014;2022-08-03T18:30:21;10.32;;;3.60;;
56161;SDS011;42045;52.986;6.014;2022-08-03T18:32:47;12.18;;;3.90;;
56161;SDS011;42045;52.986;6.014;2022-08-03T18:35:14;13.15;;;3.67;;
56161;SDS011;42045;52.986;6.014;2022-08-03T18:37:44;11.13;;;3.20;;
56161;SDS011;42045;52.986;6.014;2022-08-03T18:40:11;11.93;;;3.38;;
56161;SDS011;42045;52.986;6.014;2022-08-03T18:42:36;8.10;;;3.25;;
56161;SDS011;42045;52.986;6.014;2022-08-03T18:45:03;11.90;;;3.50;;
56161;SDS011;42045;52.986;6.014;2022-08-03T18:47:49;11.63;;;3.10;;
56161;SDS011;42045;52.986;6.014;2022-08-03T18:53:29;14.05;;;4.45;;
56161;SDS011;42045;52.986;6.014;2022-08-03T19:02:08;17.27;;;4.40;;
56161;SDS011;42045;52.986;6.014;2022-08-03T19:05:07;13.37;;;4.10;;
56161;SDS011;42045;52.986;6.014;2022-08-03T19:07:34;12.60;;;3.78;;
56161;SDS011;42045;52.986;6.014;2022-08-03T19:15:07;12.70;;;4.15;;
56161;SDS011;42045;52.986;6.014;2022-08-03T19:17:39;15.07;;;3.90;;
56161;SDS011;42045;52.986;6.014;2022-08-03T19:20:06;15.57;;;4.13;;
56161;SDS011;42045;52.986;6.014;2022-08-03T19:22:35;10.57;;;3.55;;
56161;SDS011;42045;52.986;6.014;2022-08-03T19:25:03;11.98;;;4.13;;
56161;SDS011;42045;52.986;6.014;2022-08-03T19:27:30;12.52;;;3.78;;
56161;SDS011;42045;52.986;6.014;2022-08-03T19:29:58;12.57;;;4.47;;
56161;SDS011;42045;52.986;6.014;2022-08-03T19:32:26;10.40;;;3.63;;
56161;SDS011;42045;52.986;6.014;2022-08-03T19:34:54;12.23;;;3.60;;
56161;SDS011;42045;52.986;6.014;2022-08-03T19:37:21;12.38;;;3.42;;
56161;SDS011;42045;52.986;6.014;2022-08-03T19:39:48;12.02;;;3.50;;
56161;SDS011;42045;52.986;6.014;2022-08-03T19:42:20;12.48;;;3.63;;
56161;SDS011;42045;52.986;6.014;2022-08-03T19:45:15;11.93;;;3.63;;
56161;SDS011;42045;52.986;6.014;2022-08-03T19:47:46;11.52;;;3.63;;
56161;SDS011;42045;52.986;6.014;2022-08-03T19:50:18;16.35;;;4.50;;
56161;SDS011;42045;52.986;6.014;2022-08-03T19:52:45;13.65;;;4.18;;
56161;SDS011;42045;52.986;6.014;2022-08-03T19:55:15;14.68;;;4.25;;
56161;SDS011;42045;52.986;6.014;2022-08-03T19:57:42;17.52;;;4.75;;
56161;SDS011;42045;52.986;6.014;2022-08-03T20:00:11;11.52;;;3.75;;
56161;SDS011;42045;52.986;6.014;2022-08-03T20:02:38;14.45;;;4.60;;
56161;SDS011;42045;52.986;6.014;2022-08-03T20:05:05;13.15;;;4.47;;
56161;SDS011;42045;52.986;6.014;2022-08-03T20:07:34;11.70;;;3.88;;
56161;SDS011;42045;52.986;6.014;2022-08-03T20:10:02;17.20;;;5.30;;
56161;SDS011;42045;52.986;6.014;2022-08-03T20:12:30;13.32;;;3.90;;
56161;SDS011;42045;52.986;6.014;2022-08-03T20:14:58;12.10;;;4.35;;
56161;SDS011;42045;52.986;6.014;2022-08-03T20:17:24;13.75;;;4.60;;
56161;SDS011;42045;52.986;6.014;2022-08-03T20:19:52;12.95;;;4.72;;
56161;SDS011;42045;52.986;6.014;2022-08-03T20:22:24;12.68;;;3.90;;
56161;SDS011;42045;52.986;6.014;2022-08-03T20:25:02;10.90;;;4.53;;
56161;SDS011;42045;52.986;6.014;2022-08-03T20:27:34;16.55;;;4.50;;
56161;SDS011;42045;52.986;6.014;2022-08-03T20:30:09;13.85;;;4.75;;
56161;SDS011;42045;52.986;6.014;2022-08-03T20:32:37;14.60;;;4.47;;
56161;SDS011;42045;52.986;6.014;2022-08-03T20:35:05;12.95;;;4.47;;
56161;SDS011;42045;52.986;6.014;2022-08-03T20:37:32;10.38;;;4.63;;
56161;SDS011;42045;52.986;6.014;2022-08-03T20:39:58;12.52;;;4.90;;
56161;SDS011;42045;52.986;6.014;2022-08-03T20:42:24;14.77;;;5.07;;
56161;SDS011;42045;52.986;6.014;2022-08-03T20:44:51;11.20;;;5.47;;
56161;SDS011;42045;52.986;6.014;2022-08-03T20:47:19;13.85;;;4.95;;
56161;SDS011;42045;52.986;6.014;2022-08-03T20:49:47;10.27;;;5.35;;
56161;SDS011;42045;52.986;6.014;2022-08-03T20:52:20;13.75;;;4.30;;
56161;SDS011;42045;52.986;6.014;2022-08-03T20:54:47;12.70;;;5.18;;
56161;SDS011;42045;52.986;6.014;2022-08-03T20:57:15;14.25;;;5.38;;
56161;SDS011;42045;52.986;6.014;2022-08-03T20:59:45;12.32;;;5.57;;
56161;SDS011;42045;52.986;6.014;2022-08-03T21:02:11;14.45;;;5.88;;
56161;SDS011;42045;52.986;6.014;2022-08-03T21:04:38;11.30;;;4.82;;
56161;SDS011;42045;52.986;6.014;2022-08-03T21:07:15;16.60;;;5.43;;
56161;SDS011;42045;52.986;6.014;2022-08-03T21:09:55;16.17;;;5.05;;
56161;SDS011;42045;52.986;6.014;2022-08-03T21:12:34;14.02;;;5.32;;
56161;SDS011;42045;52.986;6.014;2022-08-03T21:15:12;13.48;;;4.70;;
56161;SDS011;42045;52.986;6.014;2022-08-03T21:17:45;12.10;;;4.63;;
56161;SDS011;42045;52.986;6.014;2022-08-03T21:20:17;12.93;;;4.43;;
56161;SDS011;42045;52.986;6.014;2022-08-03T21:22:52;15.55;;;5.68;;
56161;SDS011;42045;52.986;6.014;2022-08-03T21:25:24;10.30;;;4.60;;
56161;SDS011;42045;52.986;6.014;2022-08-03T21:27:52;16.20;;;5.18;;
56161;SDS011;42045;52.986;6.014;2022-08-03T21:30:19;11.02;;;4.50;;
56161;SDS011;42045;52.986;6.014;2022-08-03T21:32:47;12.23;;;4.97;;
56161;SDS011;42045;52.986;6.014;2022-08-03T21:35:14;10.45;;;5.03;;
56161;SDS011;42045;52.986;6.014;2022-08-03T21:37:41;14.07;;;5.13;;
56161;SDS011;42045;52.986;6.014;2022-08-03T21:40:09;7.63;;;4.00;;
56161;SDS011;42045;52.986;6.014;2022-08-03T21:42:40;12.48;;;4.47;;
56161;SDS011;42045;52.986;6.014;2022-08-03T21:45:09;10.68;;;4.50;;
56161;SDS011;42045;52.986;6.014;2022-08-03T21:47:38;10.50;;;4.55;;
56161;SDS011;42045;52.986;6.014;2022-08-03T21:50:07;13.65;;;4.72;;
56161;SDS011;42045;52.986;6.014;2022-08-03T21:52:39;9.25;;;4.82;;
56161;SDS011;42045;52.986;6.014;2022-08-03T21:55:07;10.68;;;4.85;;
56161;SDS011;42045;52.986;6.014;2022-08-03T21:57:37;12.90;;;5.00;;
56161;SDS011;42045;52.986;6.014;2022-08-03T22:00:13;14.40;;;5.45;;
56161;SDS011;42045;52.986;6.014;2022-08-03T22:02:46;13.20;;;4.75;;
56161;SDS011;42045;52.986;6.014;2022-08-03T22:05:19;9.63;;;4.15;;
56161;SDS011;42045;52.986;6.014;2022-08-03T22:07:46;19.58;;;5.57;;
56161;SDS011;42045;52.986;6.014;2022-08-03T22:10:13;14.20;;;4.90;;
56161;SDS011;42045;52.986;6.014;2022-08-03T22:12:39;12.48;;;4.95;;
56161;SDS011;42045;52.986;6.014;2022-08-03T22:15:08;13.75;;;6.70;;
56161;SDS011;42045;52.986;6.014;2022-08-03T22:17:37;12.00;;;4.65;;
56161;SDS011;42045;52.986;6.014;2022-08-03T22:20:05;12.43;;;4.53;;
56161;SDS011;42045;52.986;6.014;2022-08-03T22:22:33;12.10;;;4.93;;
56161;SDS011;42045;52.986;6.014;2022-08-03T22:25:04;14.27;;;4.80;;
56161;SDS011;42045;52.986;6.014;2022-08-03T22:27:37;9.05;;;4.63;;
56161;SDS011;42045;52.986;6.014;2022-08-03T22:30:08;11.20;;;4.90;;